Time;durP1;ratioP1;P1;durP2;ratioP2;P2;SDS_P1;SDS_P2;PMS_P1;PMS_P2;Temp;Humidity;BMP_temperature;BMP_pressure;BME280_temperature;BME280_humidity;BME280_pressure;Samples;Min_cycle;Max_cycle;Signal;HPM_P1;HPM_P2
2022/02/13 00:01:27;;;;;;;6.80;3.35;;;8.20;96.70;;;;;;5104506;27;20133;-81
2022/02/13 00:03:55;;;;;;;6.15;3.40;;;8.20;96.70;;;;;;5103580;27;20446;-81
2022/02/13 00:06:23;;;;;;;6.10;3.47;;;8.30;96.70;;;;;;5108146;27;20036;-81
2022/02/13 00:08:53;;;;;;;6.68;3.90;;;8.30;96.70;;;;;;5108255;27;20064;-81
2022/02/13 00:11:22;;;;;;;7.55;3.63;;;8.30;96.70;;;;;;5086500;28;20422;-81
2022/02/13 00:48:49;;;;;;;9.00;4.75;;;7.70;96.70;;;;;;5096956;27;20130;-80
2022/02/13 00:51:17;;;;;;;6.63;4.22;;;7.70;96.70;;;;;;5085397;28;20055;-80
2022/02/13 00:53:45;;;;;;;7.65;4.78;;;7.50;96.70;;;;;;5067576;28;20047;-80
2022/02/13 00:56:14;;;;;;;9.15;5.03;;;7.50;96.70;;;;;;5075588;28;20051;-80
2022/02/13 00:58:44;;;;;;;7.28;4.05;;;7.50;96.70;;;;;;5081942;28;20094;-80
2022/02/13 01:01:13;;;;;;;6.90;4.18;;;7.50;96.70;;;;;;5076401;28;20040;-80
2022/02/13 01:03:41;;;;;;;6.38;3.55;;;7.50;96.70;;;;;;5071407;28;20063;-80
2022/02/13 01:06:11;;;;;;;4.60;3.45;;;7.50;96.70;;;;;;5071341;28;20044;-80
2022/02/13 01:08:40;;;;;;;5.65;2.67;;;7.60;96.70;;;;;;5071663;28;20691;-80
2022/02/13 01:11:09;;;;;;;5.28;2.78;;;7.70;96.70;;;;;;5058249;28;20045;-80
2022/02/13 01:13:37;;;;;;;4.50;1.80;;;7.70;96.70;;;;;;5075232;28;20048;-81
2022/02/13 01:16:05;;;;;;;7.80;2.10;;;7.70;96.70;;;;;;5098678;28;20036;-80
2022/02/13 01:18:33;;;;;;;3.08;1.60;;;7.60;96.70;;;;;;5068146;28;20055;-80
2022/02/13 01:21:01;;;;;;;2.20;1.25;;;7.70;96.70;;;;;;5058780;28;20076;-80
2022/02/13 01:23:31;;;;;;;3.17;1.15;;;7.70;96.70;;;;;;5073253;28;20123;-80
2022/02/13 01:25:59;;;;;;;2.85;1.42;;;7.60;96.70;;;;;;5068460;28;20040;-80
2022/02/13 01:28:27;;;;;;;1.77;1.08;;;7.60;96.70;;;;;;5070231;28;20495;-80
2022/02/13 01:31:00;;;;;;;3.38;1.10;;;7.70;96.70;;;;;;5060158;28;20810;-80
2022/02/13 01:33:29;;;;;;;2.38;1.02;;;7.80;96.70;;;;;;5077354;28;20119;-81
2022/02/13 01:35:58;;;;;;;3.60;1.23;;;7.80;96.70;;;;;;5074226;28;20033;-80
2022/02/13 01:38:27;;;;;;;1.85;1.10;;;7.70;96.70;;;;;;5060889;28;20063;-80
2022/02/13 01:40:57;;;;;;;2.45;1.20;;;7.50;96.70;;;;;;5085171;28;20047;-80
2022/02/13 01:43:26;;;;;;;2.80;1.50;;;7.50;96.70;;;;;;5070582;28;20379;-80
2022/02/13 01:45:54;;;;;;;3.92;1.63;;;7.50;96.70;;;;;;5072638;28;20409;-80
2022/02/13 01:48:22;;;;;;;4.28;2.03;;;7.40;96.70;;;;;;5072109;28;20071;-80
2022/02/13 01:50:51;;;;;;;4.88;2.00;;;7.40;96.70;;;;;;5074889;28;20437;-80
2022/02/13 01:53:39;;;;;;;3.00;1.73;;;7.30;96.70;;;;;;5057806;28;20048;-80
2022/02/13 01:56:09;;;;;;;2.97;1.70;;;7.40;96.70;;;;;;5070675;28;20028;-80
2022/02/13 01:58:38;;;;;;;3.38;1.60;;;7.40;96.70;;;;;;5059251;28;20508;-80
2022/02/13 02:01:10;;;;;;;6.40;1.95;;;7.40;96.70;;;;;;5060399;28;20056;-80
2022/02/13 02:03:40;;;;;;;3.78;2.60;;;7.40;96.70;;;;;;5054228;28;20069;-81
2022/02/13 02:06:08;;;;;;;4.25;2.33;;;7.40;96.70;;;;;;5057604;28;20537;-81
2022/02/13 02:08:37;;;;;;;4.45;2.28;;;7.40;96.70;;;;;;5069642;28;20052;-81
2022/02/13 02:11:05;;;;;;;3.25;1.70;;;7.40;96.70;;;;;;5059513;28;20048;-81
2022/02/13 02:13:36;;;;;;;2.80;1.30;;;7.40;96.70;;;;;;5059098;28;20325;-81
2022/02/13 02:16:04;;;;;;;3.17;1.20;;;7.40;96.70;;;;;;5055476;28;20541;-81
2022/02/13 02:18:32;;;;;;;3.88;1.08;;;7.30;96.70;;;;;;5046416;28;20062;-81
2022/02/13 02:21:05;;;;;;;2.20;1.10;;;7.30;96.70;;;;;;5055822;28;20053;-81
2022/02/13 02:23:35;;;;;;;2.83;1.15;;;7.30;96.70;;;;;;5058328;28;20517;-81
2022/02/13 02:26:03;;;;;;;2.83;1.10;;;7.40;96.70;;;;;;5055651;28;20131;-81
2022/02/13 02:28:31;;;;;;;3.38;1.67;;;7.50;96.70;;;;;;5082165;28;20357;-81
2022/02/13 02:31:02;;;;;;;2.45;1.10;;;7.30;96.70;;;;;;5056813;28;20048;-81
2022/02/13 02:33:30;;;;;;;1.63;1.00;;;7.20;96.70;;;;;;5056049;28;20410;-80
2022/02/13 02:35:58;;;;;;;3.30;1.48;;;7.20;96.70;;;;;;5060635;28;20060;-81
2022/02/13 02:38:26;;;;;;;1.92;0.70;;;7.00;96.70;;;;;;5052006;28;20443;-81
2022/02/13 02:40:56;;;;;;;2.10;1.83;;;6.90;96.70;;;;;;5055255;28;20407;-81
2022/02/13 02:43:24;;;;;;;1.75;1.10;;;7.00;96.70;;;;;;5057430;28;20044;-81
2022/02/13 02:45:52;;;;;;;2.40;1.20;;;7.00;96.70;;;;;;5054061;28;20040;-80
2022/02/13 02:48:20;;;;;;;3.17;1.30;;;7.10;96.70;;;;;;5057875;28;20061;-81
2022/02/13 02:50:48;;;;;;;2.60;1.50;;;7.10;96.70;;;;;;5063238;28;20040;-81
2022/02/13 02:53:16;;;;;;;2.05;1.25;;;7.00;96.70;;;;;;5040123;28;20049;-81
2022/02/13 02:55:44;;;;;;;1.85;1.20;;;6.90;96.70;;;;;;5045929;28;20784;-81
2022/02/13 02:58:14;;;;;;;2.60;1.10;;;6.60;96.70;;;;;;5059255;28;20391;-81
2022/02/13 03:00:42;;;;;;;1.45;1.00;;;6.50;96.70;;;;;;5056276;28;20530;-81
2022/02/13 03:03:10;;;;;;;1.98;1.08;;;6.60;96.70;;;;;;5054610;28;20046;-81
2022/02/13 03:05:38;;;;;;;2.47;2.00;;;6.60;96.70;;;;;;5043253;28;21131;-81
2022/02/13 03:08:06;;;;;;;4.25;1.90;;;6.80;96.70;;;;;;5068974;28;20040;-81
2022/02/13 03:10:34;;;;;;;1.70;1.60;;;6.70;96.70;;;;;;5054693;28;20434;-81
2022/02/13 03:13:03;;;;;;;2.50;1.40;;;6.70;96.70;;;;;;5039776;28;20033;-81
2022/02/13 03:15:32;;;;;;;1.88;1.02;;;6.80;96.70;;;;;;5092285;28;20044;-81
2022/02/13 03:18:02;;;;;;;3.95;1.20;;;6.90;96.70;;;;;;5044198;28;20041;-81
2022/02/13 03:20:30;;;;;;;3.05;1.05;;;7.00;96.70;;;;;;5057621;28;20094;-82
2022/02/13 03:22:58;;;;;;;2.42;1.10;;;7.00;96.70;;;;;;5063162;28;20060;-81
2022/02/13 03:25:26;;;;;;;2.63;0.85;;;7.00;96.70;;;;;;5063799;28;20143;-81
2022/02/13 03:27:54;;;;;;;1.73;1.20;;;6.90;96.70;;;;;;5055250;28;20146;-81
2022/02/13 03:30:23;;;;;;;2.65;1.23;;;6.80;96.70;;;;;;5056659;28;20041;-81
2022/02/13 03:32:52;;;;;;;3.47;1.17;;;6.70;96.70;;;;;;5054465;28;20044;-81
2022/02/13 03:35:21;;;;;;;3.10;1.13;;;6.70;96.70;;;;;;5089073;28;20076;-81
2022/02/13 03:37:50;;;;;;;3.50;1.17;;;6.70;96.70;;;;;;5057763;28;20044;-81
2022/02/13 03:40:18;;;;;;;3.38;1.00;;;6.80;96.70;;;;;;5084452;28;20056;-81
2022/02/13 03:42:46;;;;;;;1.60;0.82;;;6.70;96.70;;;;;;5041902;28;20553;-81
2022/02/13 03:45:15;;;;;;;2.20;0.73;;;6.70;96.70;;;;;;5046891;28;20048;-81
2022/02/13 03:47:43;;;;;;;2.80;0.77;;;6.60;96.70;;;;;;5074927;28;20060;-81
2022/02/13 03:50:13;;;;;;;1.33;0.60;;;6.60;96.70;;;;;;5057957;28;20046;-82
2022/02/13 03:52:41;;;;;;;4.22;1.02;;;6.60;96.70;;;;;;5054644;28;20071;-82
2022/02/13 03:55:16;;;;;;;3.00;0.70;;;6.70;96.70;;;;;;5071963;28;20155;-83
2022/02/13 03:57:45;;;;;;;2.42;0.60;;;6.70;96.70;;;;;;5055728;28;20154;-82
2022/02/13 04:00:14;;;;;;;1.15;0.50;;;6.70;96.70;;;;;;5059863;28;20498;-82
2022/02/13 04:02:42;;;;;;;2.60;0.80;;;6.70;96.70;;;;;;5055724;28;20048;-82
2022/02/13 04:05:12;;;;;;;1.75;0.70;;;6.60;96.70;;;;;;5058458;28;20103;-83
2022/02/13 04:07:41;;;;;;;1.38;0.60;;;6.50;96.70;;;;;;5056668;28;20178;-83
2022/02/13 04:10:10;;;;;;;1.92;0.98;;;6.50;96.70;;;;;;5060313;28;20036;-83
2022/02/13 04:12:38;;;;;;;1.58;0.80;;;6.50;96.70;;;;;;5048293;28;20048;-83
2022/02/13 04:15:07;;;;;;;1.27;0.75;;;6.50;96.70;;;;;;5057399;28;20032;-83
2022/02/13 04:17:35;;;;;;;1.00;0.68;;;6.50;96.70;;;;;;5060367;28;20143;-82
2022/02/13 04:20:05;;;;;;;2.95;0.80;;;6.40;96.70;;;;;;5056418;28;20812;-83
2022/02/13 04:22:34;;;;;;;3.13;0.80;;;6.40;96.70;;;;;;5063630;28;20037;-83
2022/02/13 04:25:03;;;;;;;1.73;0.80;;;6.50;96.70;;;;;;5057978;28;20316;-83
2022/02/13 04:27:31;;;;;;;2.15;0.80;;;6.50;96.70;;;;;;5059172;28;20347;-83
2022/02/13 04:29:59;;;;;;;3.42;0.82;;;6.40;96.70;;;;;;5057163;28;20048;-83
2022/02/13 04:32:27;;;;;;;1.52;0.80;;;6.30;96.70;;;;;;5055399;28;20056;-83
2022/02/13 04:34:56;;;;;;;1.13;0.68;;;6.40;96.70;;;;;;5042908;28;20102;-83
2022/02/13 04:37:24;;;;;;;3.80;0.82;;;6.40;96.70;;;;;;5061931;28;20352;-83
2022/02/13 04:39:53;;;;;;;2.78;0.93;;;6.30;96.70;;;;;;5053582;28;20588;-83
2022/02/13 04:42:24;;;;;;;2.45;0.93;;;6.30;96.70;;;;;;5037827;28;20116;-82
2022/02/13 04:44:52;;;;;;;1.20;0.80;;;6.40;96.70;;;;;;5034573;28;20090;-83
2022/02/13 04:47:20;;;;;;;1.63;0.90;;;6.40;96.70;;;;;;5066062;28;20890;-82
2022/02/13 04:49:48;;;;;;;1.92;1.15;;;6.40;96.70;;;;;;5056369;28;20045;-83
2022/02/13 04:52:17;;;;;;;1.73;0.80;;;6.40;96.70;;;;;;5040287;28;20041;-83
2022/02/13 04:54:45;;;;;;;1.80;0.95;;;6.20;96.70;;;;;;5061453;28;20127;-81
2022/02/13 04:57:14;;;;;;;1.60;1.08;;;6.00;96.70;;;;;;5066426;28;20105;-82
2022/02/13 04:59:43;;;;;;;3.35;1.17;;;6.00;96.70;;;;;;5055321;28;20135;-83
2022/02/13 05:02:11;;;;;;;3.35;1.10;;;6.10;96.70;;;;;;5072432;28;20071;-82
2022/02/13 05:04:39;;;;;;;1.88;0.90;;;6.20;96.70;;;;;;5070530;28;20072;-83
2022/02/13 05:07:07;;;;;;;2.65;1.05;;;6.10;96.70;;;;;;5073577;28;20127;-83
2022/02/13 05:09:35;;;;;;;1.83;1.10;;;6.10;96.70;;;;;;5058410;28;20132;-83
2022/02/13 05:12:04;;;;;;;3.15;1.02;;;6.00;96.70;;;;;;5057712;28;20146;-83
2022/02/13 05:14:34;;;;;;;4.00;2.20;;;6.10;96.70;;;;;;5056561;28;20029;-82
2022/02/13 05:17:03;;;;;;;3.03;1.30;;;6.10;96.70;;;;;;5051972;28;20036;-82
2022/02/13 05:19:31;;;;;;;2.63;1.40;;;6.10;96.70;;;;;;5037740;28;20055;-83
2022/02/13 05:21:59;;;;;;;2.03;1.40;;;6.10;96.70;;;;;;5058119;28;20483;-83
2022/02/13 05:24:27;;;;;;;2.17;1.02;;;6.20;96.70;;;;;;5056116;28;20040;-82
2022/02/13 05:26:55;;;;;;;3.72;1.52;;;6.10;96.70;;;;;;5072012;28;20068;-82
2022/02/13 05:29:23;;;;;;;3.42;1.70;;;6.00;96.70;;;;;;5062261;28;20141;-83
2022/02/13 05:31:53;;;;;;;3.47;1.77;;;5.90;96.70;;;;;;5054847;28;20049;-83
2022/02/13 05:34:21;;;;;;;3.17;1.67;;;5.90;96.70;;;;;;5040448;28;20047;-83
2022/02/13 05:36:50;;;;;;;2.85;1.75;;;5.90;96.70;;;;;;5071583;28;20048;-83
2022/02/13 05:39:18;;;;;;;4.53;1.52;;;5.90;96.70;;;;;;5062926;28;20128;-83
2022/02/13 05:41:47;;;;;;;3.03;1.70;;;5.90;96.70;;;;;;5061839;28;20040;-83
2022/02/13 05:44:15;;;;;;;2.78;1.80;;;6.00;96.70;;;;;;5039509;28;20131;-83
2022/02/13 05:46:43;;;;;;;4.03;1.85;;;6.00;96.70;;;;;;5064851;28;20087;-83
2022/02/13 05:49:13;;;;;;;3.67;1.83;;;5.90;96.70;;;;;;5076796;28;21592;-82
2022/02/13 05:51:43;;;;;;;2.78;1.80;;;5.90;96.70;;;;;;5040896;28;20071;-82
2022/02/13 05:54:11;;;;;;;3.60;2.15;;;5.90;96.70;;;;;;5038367;28;20041;-83
2022/02/13 05:56:41;;;;;;;4.80;2.30;;;5.90;96.70;;;;;;5075804;28;20132;-82
2022/02/13 05:59:09;;;;;;;4.05;2.00;;;5.90;96.70;;;;;;5092490;28;20044;-83
2022/02/13 06:01:38;;;;;;;2.55;1.52;;;5.70;96.70;;;;;;5059390;28;20417;-83
2022/02/13 06:04:06;;;;;;;3.35;1.80;;;5.80;96.70;;;;;;5037202;28;20158;-82
2022/02/13 06:06:36;;;;;;;3.55;1.98;;;5.60;96.70;;;;;;5061033;28;20494;-83
2022/02/13 06:09:04;;;;;;;4.35;1.92;;;5.60;96.70;;;;;;5057986;28;20333;-82
2022/02/13 06:11:32;;;;;;;4.63;2.10;;;5.60;96.70;;;;;;5059329;28;20066;-82
2022/02/13 06:14:00;;;;;;;4.55;2.20;;;5.50;96.70;;;;;;5078040;28;20044;-82
2022/02/13 06:16:28;;;;;;;6.65;2.50;;;5.70;96.70;;;;;;5043701;28;20041;-82
2022/02/13 06:18:56;;;;;;;6.60;2.42;;;5.70;96.70;;;;;;5087396;28;20102;-82
2022/02/13 06:21:25;;;;;;;3.50;2.47;;;5.60;96.70;;;;;;5037700;28;20069;-82
2022/02/13 06:23:54;;;;;;;2.38;1.90;;;5.60;96.70;;;;;;5058565;28;20588;-82
2022/02/13 06:26:22;;;;;;;4.80;1.95;;;5.60;96.70;;;;;;5072488;28;20047;-82
2022/02/13 06:28:51;;;;;;;4.28;1.95;;;5.60;96.70;;;;;;5056540;28;20057;-82
2022/02/13 06:31:19;;;;;;;3.10;1.85;;;5.50;96.70;;;;;;5055789;28;20033;-82
2022/02/13 06:33:48;;;;;;;6.85;1.98;;;5.50;96.70;;;;;;5059623;28;20383;-82
2022/02/13 06:36:16;;;;;;;3.30;1.90;;;5.50;96.70;;;;;;5054791;28;20087;-82
2022/02/13 06:38:44;;;;;;;4.68;2.25;;;5.60;96.70;;;;;;5048592;28;20056;-82
2022/02/13 06:41:13;;;;;;;5.10;2.10;;;5.50;96.70;;;;;;5085727;28;20129;-82
2022/02/13 06:43:42;;;;;;;3.88;2.17;;;5.60;96.70;;;;;;5052456;28;20041;-82
2022/02/13 06:46:10;;;;;;;5.95;2.33;;;5.60;96.70;;;;;;5056702;28;20045;-83
2022/02/13 06:48:38;;;;;;;4.03;2.20;;;5.60;96.70;;;;;;5061384;28;20052;-82
2022/02/13 06:51:07;;;;;;;3.78;2.10;;;5.70;96.70;;;;;;5055906;28;20068;-82
2022/02/13 06:53:35;;;;;;;4.10;1.77;;;5.60;96.70;;;;;;5055080;28;20047;-82
2022/02/13 06:56:04;;;;;;;3.15;1.90;;;5.60;96.70;;;;;;5037487;28;20045;-82
2022/02/13 06:58:34;;;;;;;5.00;2.42;;;5.60;96.70;;;;;;5058655;28;20048;-83
2022/02/13 07:01:03;;;;;;;3.40;2.08;;;5.70;96.70;;;;;;5057524;28;20048;-83
2022/02/13 07:03:31;;;;;;;4.53;2.30;;;5.70;96.70;;;;;;5053980;28;20083;-82
2022/02/13 07:05:59;;;;;;;3.65;1.85;;;5.70;96.70;;;;;;5057122;28;20033;-83
2022/02/13 07:08:28;;;;;;;2.47;1.70;;;5.80;96.70;;;;;;5056890;28;20043;-82
2022/02/13 07:10:56;;;;;;;4.45;2.30;;;5.90;96.70;;;;;;5059384;28;20115;-82
2022/02/13 07:13:24;;;;;;;5.28;2.42;;;5.80;96.70;;;;;;5064442;28;20040;-82
2022/02/13 07:15:54;;;;;;;5.97;2.38;;;5.80;96.70;;;;;;5041619;28;20041;-82
2022/02/13 07:18:22;;;;;;;3.20;2.30;;;5.90;96.70;;;;;;5057310;28;20045;-83
2022/02/13 07:20:52;;;;;;;4.05;2.83;;;6.00;96.70;;;;;;5061342;28;20056;-82
2022/02/13 07:23:20;;;;;;;35.05;21.45;;;6.10;96.70;;;;;;5055308;28;20037;-82
2022/02/13 07:25:50;;;;;;;32.25;19.48;;;6.10;96.70;;;;;;5054734;28;20760;-82
2022/02/13 07:31:06;;;;;;;27.05;17.10;;;6.20;96.70;;;;;;5060252;28;20068;-83
2022/02/13 07:33:34;;;;;;;15.13;9.70;;;6.20;96.70;;;;;;5070426;28;20087;-83
2022/02/13 07:36:03;;;;;;;15.00;7.97;;;6.30;96.70;;;;;;5060548;28;20060;-83
2022/02/13 07:38:31;;;;;;;10.55;7.50;;;6.20;96.70;;;;;;5061647;28;20587;-82
2022/02/13 07:41:00;;;;;;;11.70;7.53;;;6.20;96.70;;;;;;5058853;28;20048;-82
2022/02/13 07:43:28;;;;;;;9.50;5.60;;;6.30;96.70;;;;;;5056698;28;20041;-82
2022/02/13 07:45:56;;;;;;;8.02;5.38;;;6.40;96.70;;;;;;5089427;28;20375;-82
2022/02/13 07:48:26;;;;;;;7.45;4.72;;;6.60;96.70;;;;;;5089013;27;20067;-83
2022/02/13 07:50:54;;;;;;;6.43;3.65;;;6.60;96.70;;;;;;5084570;28;20037;-82
2022/02/13 07:53:23;;;;;;;6.82;3.20;;;6.70;96.70;;;;;;5062759;28;20123;-83
2022/02/13 07:55:51;;;;;;;4.82;2.90;;;6.80;96.70;;;;;;5062230;28;20464;-82
2022/02/13 07:58:19;;;;;;;4.22;2.90;;;6.90;96.70;;;;;;5058548;28;20044;-82
2022/02/13 08:00:48;;;;;;;4.22;2.75;;;7.00;96.70;;;;;;5058680;28;20052;-82
2022/02/13 08:03:16;;;;;;;6.18;2.90;;;7.00;96.70;;;;;;5060032;28;20040;-82
2022/02/13 08:05:46;;;;;;;5.20;3.20;;;6.90;96.70;;;;;;5043389;28;20478;-82
2022/02/13 08:08:14;;;;;;;6.43;3.05;;;6.90;96.70;;;;;;5062439;28;20045;-82
2022/02/13 08:10:43;;;;;;;6.15;3.60;;;7.10;96.70;;;;;;5056641;28;20098;-82
2022/02/13 08:13:13;;;;;;;4.13;3.00;;;7.10;96.70;;;;;;5043358;28;20037;-82
2022/02/13 08:15:41;;;;;;;5.18;2.97;;;7.20;96.70;;;;;;5056719;28;20138;-82
2022/02/13 08:18:11;;;;;;;4.45;3.20;;;7.20;96.70;;;;;;5039441;28;20127;-82
2022/02/13 08:20:40;;;;;;;5.97;2.90;;;7.20;96.70;;;;;;5056468;28;20144;-82
2022/02/13 08:23:10;;;;;;;4.28;2.63;;;7.40;96.70;;;;;;5053116;28;20029;-83
2022/02/13 08:25:40;;;;;;;5.10;2.70;;;7.40;96.70;;;;;;5040265;28;20049;-82
2022/02/13 08:28:08;;;;;;;4.03;2.50;;;7.50;96.70;;;;;;5057790;28;20036;-83
2022/02/13 08:30:36;;;;;;;3.67;2.40;;;7.60;96.70;;;;;;5052688;28;20068;-82
2022/02/13 08:33:04;;;;;;;5.40;2.97;;;7.70;96.70;;;;;;5035756;28;20045;-83
2022/02/13 08:35:33;;;;;;;4.93;2.85;;;7.80;96.70;;;;;;5057214;28;20085;-83
2022/02/13 08:38:01;;;;;;;3.85;2.80;;;7.80;96.70;;;;;;5055194;28;20131;-82
2022/02/13 08:40:32;;;;;;;5.40;2.90;;;7.90;96.70;;;;;;5044267;28;20040;-82
2022/02/13 08:43:01;;;;;;;4.70;2.97;;;8.00;96.70;;;;;;5058897;28;20044;-82
2022/02/13 08:45:30;;;;;;;4.53;2.75;;;8.20;96.70;;;;;;5054300;28;20060;-82
2022/02/13 08:47:59;;;;;;;4.68;2.92;;;8.20;96.70;;;;;;5060922;28;20075;-82
2022/02/13 08:50:27;;;;;;;7.90;3.38;;;8.30;96.70;;;;;;5054441;28;20057;-83
2022/02/13 08:52:55;;;;;;;5.80;3.70;;;8.30;96.70;;;;;;5051258;28;20045;-82
2022/02/13 08:55:24;;;;;;;10.13;4.80;;;8.40;96.70;;;;;;5054399;28;20136;-82
2022/02/13 08:57:53;;;;;;;8.88;4.35;;;8.50;96.70;;;;;;5058483;28;20049;-82
2022/02/13 09:00:21;;;;;;;4.90;2.95;;;8.50;96.70;;;;;;5057117;28;20330;-82
2022/02/13 09:02:49;;;;;;;5.55;2.72;;;8.60;96.70;;;;;;5053996;28;20044;-82
2022/02/13 09:05:18;;;;;;;3.10;2.25;;;8.60;96.70;;;;;;5052441;28;20044;-82
2022/02/13 09:07:46;;;;;;;4.78;2.88;;;8.70;96.70;;;;;;5056569;28;20044;-82
2022/02/13 09:10:14;;;;;;;4.65;2.90;;;8.80;96.70;;;;;;5053606;28;20162;-82
2022/02/13 09:12:44;;;;;;;6.93;2.95;;;9.00;96.70;;;;;;5056286;28;20543;-82
2022/02/13 09:15:14;;;;;;;5.40;3.00;;;9.10;96.70;;;;;;5045964;28;20055;-82
2022/02/13 09:17:43;;;;;;;5.78;3.15;;;9.30;96.70;;;;;;5058977;28;20060;-80
2022/02/13 09:20:12;;;;;;;6.03;3.55;;;9.40;96.70;;;;;;5050072;28;20048;-81
2022/02/13 09:22:40;;;;;;;14.95;8.35;;;9.40;96.70;;;;;;5079175;28;20049;-80
2022/02/13 09:54:26;;;;;;;5.75;3.80;;;9.70;96.70;;;;;;5100605;27;20136;-82
2022/02/13 09:57:59;;;;;;;7.43;4.90;;;9.70;96.70;;;;;;5081630;28;20096;-81
2022/02/13 10:00:02;;;;;;;6.85;4.47;;;9.70;96.70;;;;;;5097202;28;20075;-82
2022/02/13 10:02:39;;;;;;;13.13;8.60;;;9.80;96.70;;;;;;5097198;28;20047;-80
2022/02/13 10:05:10;;;;;;;10.68;5.93;;;9.80;96.70;;;;;;5092960;28;20044;-80
2022/02/13 10:07:39;;;;;;;6.90;4.05;;;10.00;96.70;;;;;;5097980;28;20405;-80
2022/02/13 10:10:11;;;;;;;7.13;4.40;;;10.10;96.70;;;;;;5094224;28;20043;-81
2022/02/13 10:12:42;;;;;;;7.38;4.55;;;10.30;96.70;;;;;;5096501;28;20044;-83
2022/02/13 10:15:27;;;;;;;6.55;5.18;;;10.40;96.70;;;;;;5096164;28;20070;-81
2022/02/13 10:17:59;;;;;;;6.50;3.92;;;10.50;96.70;;;;;;5098241;28;20032;-80
2022/02/13 10:20:29;;;;;;;7.32;4.07;;;10.60;96.70;;;;;;5096264;28;20043;-81
2022/02/13 10:23:02;;;;;;;5.97;4.03;;;10.70;96.70;;;;;;5096835;28;20240;-81
2022/02/13 10:25:32;;;;;;;7.22;3.83;;;10.90;96.70;;;;;;5094898;28;20524;-83
2022/02/13 10:28:09;;;;;;;7.15;4.10;;;11.10;96.70;;;;;;5096552;28;20043;-81
2022/02/13 10:30:40;;;;;;;4.80;3.33;;;11.20;96.70;;;;;;5090461;28;20040;-83
2022/02/13 10:33:19;;;;;;;5.00;3.92;;;11.30;96.70;;;;;;5094380;28;20355;-83
2022/02/13 10:36:07;;;;;;;6.32;4.22;;;11.40;96.70;;;;;;5097581;28;20047;-82
2022/02/13 10:38:37;;;;;;;7.40;4.40;;;11.40;96.70;;;;;;5080608;28;20143;-81
2022/02/13 10:41:13;;;;;;;7.15;5.10;;;11.50;96.70;;;;;;5097254;28;20040;-79
2022/02/13 10:43:56;;;;;;;6.47;4.00;;;11.60;96.70;;;;;;5094777;28;20031;-79
2022/02/13 10:46:28;;;;;;;5.97;3.05;;;11.80;96.70;;;;;;5097522;28;20127;-79
2022/02/13 10:48:57;;;;;;;6.30;4.72;;;12.10;96.70;;;;;;5075370;28;20575;-78
2022/02/13 10:51:25;;;;;;;7.97;5.03;;;12.00;96.70;;;;;;5095307;28;20051;-79
2022/02/13 10:53:54;;;;;;;6.35;4.55;;;12.10;96.70;;;;;;5077287;28;20052;-79
2022/02/13 10:56:24;;;;;;;7.45;4.80;;;12.30;96.70;;;;;;5094374;28;20050;-79
2022/02/13 10:58:59;;;;;;;8.32;4.75;;;12.40;96.70;;;;;;5096688;28;20042;-80
2022/02/13 11:01:29;;;;;;;8.65;6.28;;;12.50;96.70;;;;;;5094938;28;20074;-80
2022/02/13 11:04:03;;;;;;;8.45;5.03;;;12.60;96.70;;;;;;5080131;28;20101;-80
2022/02/13 11:06:33;;;;;;;6.53;4.32;;;12.60;96.70;;;;;;5066446;28;20523;-80
2022/02/13 11:09:09;;;;;;;8.07;3.25;;;12.70;96.70;;;;;;5081486;28;20038;-80
2022/02/13 11:11:45;;;;;;;5.78;1.90;;;12.70;96.70;;;;;;5081203;28;20052;-79
2022/02/13 11:14:30;;;;;;;2.50;1.48;;;12.80;96.70;;;;;;5065208;28;20760;-80
2022/02/13 11:17:02;;;;;;;3.10;1.15;;;13.00;96.70;;;;;;5082076;28;20032;-80
2022/02/13 11:19:32;;;;;;;3.55;0.85;;;13.10;96.70;;;;;;5080666;28;20040;-80
2022/02/13 11:22:02;;;;;;;1.38;0.85;;;13.20;96.70;;;;;;5079614;28;20510;-80
2022/02/13 11:24:34;;;;;;;4.18;2.28;;;13.30;96.70;;;;;;5080556;28;20044;-80
2022/02/13 11:27:05;;;;;;;4.80;2.20;;;13.40;96.70;;;;;;5081274;28;20131;-80
2022/02/13 11:29:51;;;;;;;3.35;1.90;;;13.60;96.70;;;;;;5077475;28;20359;-79
2022/02/13 11:32:37;;;;;;;3.33;1.65;;;13.60;96.70;;;;;;5080030;28;20568;-82
2022/02/13 11:35:07;;;;;;;3.03;1.58;;;13.60;96.70;;;;;;5080247;28;20105;-80
2022/02/13 11:37:44;;;;;;;2.67;1.48;;;13.60;96.70;;;;;;5065601;28;20043;-80
2022/02/13 11:40:30;;;;;;;;;;;13.50;96.70;;;;;;5080106;28;20036;-84
2022/02/13 11:43:00;;;;;;;6.70;2.38;;;13.50;96.70;;;;;;5081022;28;19927;-80
2022/02/13 11:45:41;;;;;;;2.70;2.10;;;13.50;96.70;;;;;;5080905;28;20082;-81
2022/02/13 11:48:42;;;;;;;3.03;1.70;;;13.40;96.70;;;;;;5071424;28;20043;-81
2022/02/13 11:51:13;;;;;;;5.15;2.70;;;13.50;96.70;;;;;;5095203;28;20402;-81
2022/02/13 11:53:43;;;;;;;2.58;1.40;;;13.60;96.70;;;;;;5072446;28;20071;-80
2022/02/13 11:56:22;;;;;;;2.85;1.20;;;13.70;96.70;;;;;;5077851;28;20450;-81
2022/02/13 11:58:55;;;;;;;4.50;2.67;;;13.90;96.70;;;;;;5080003;28;20035;-80
2022/02/13 12:01:40;;;;;;;6.25;4.03;;;13.80;96.70;;;;;;5079563;28;20043;-83
2022/02/13 12:04:10;;;;;;;5.90;2.53;;;13.80;96.70;;;;;;5082582;28;20032;-80
2022/02/13 12:06:38;;;;;;;4.47;1.80;;;13.80;96.70;;;;;;5081045;28;20032;-79
2022/02/13 12:09:09;;;;;;;2.67;1.38;;;14.00;96.70;;;;;;5081328;28;20618;-78
2022/02/13 12:11:39;;;;;;;4.60;1.50;;;14.20;96.70;;;;;;5080354;28;20046;-80
2022/02/13 12:14:17;;;;;;;6.13;2.58;;;14.30;96.70;;;;;;5063716;28;20153;-80
2022/02/13 12:16:54;;;;;;;4.05;1.70;;;14.20;96.40;;;;;;5079736;28;20072;-80
2022/02/13 12:19:30;;;;;;;2.30;1.10;;;14.30;96.40;;;;;;5080604;28;20559;-80
2022/02/13 12:22:13;;;;;;;2.45;1.60;;;14.40;96.40;;;;;;5064645;28;20138;-80
2022/02/13 12:24:46;;;;;;;2.75;1.60;;;14.70;96.30;;;;;;5078319;28;20032;-80
2022/02/13 12:27:15;;;;;;;1.88;1.08;;;14.90;96.00;;;;;;5081585;28;20040;-80
2022/02/13 12:29:53;;;;;;;1.85;0.90;;;14.80;94.90;;;;;;5079834;28;20101;-81
2022/02/13 12:32:25;;;;;;;2.22;1.02;;;14.60;94.70;;;;;;5080620;28;20156;-80
2022/02/13 12:34:56;;;;;;;2.55;1.50;;;14.70;95.60;;;;;;5078224;28;20048;-81
2022/02/13 12:37:38;;;;;;;2.35;1.33;;;14.80;95.50;;;;;;5077727;28;20082;-80
2022/02/13 12:40:09;;;;;;;4.55;1.30;;;14.80;94.90;;;;;;5079968;28;20055;-79
2022/02/13 12:42:40;;;;;;;2.08;0.88;;;14.80;95.50;;;;;;5061295;28;20036;-80
2022/02/13 12:45:13;;;;;;;2.20;1.35;;;15.00;95.50;;;;;;5065961;28;20131;-81
2022/02/13 12:47:43;;;;;;;3.33;1.30;;;15.00;95.10;;;;;;5081240;28;20343;-80
2022/02/13 12:50:14;;;;;;;2.15;1.00;;;15.20;95.00;;;;;;5079480;28;20048;-81
2022/02/13 12:52:43;;;;;;;2.10;1.45;;;15.30;94.90;;;;;;5082226;28;20530;-81
2022/02/13 12:55:14;;;;;;;3.25;1.13;;;15.30;95.10;;;;;;5070657;28;20510;-81
2022/02/13 12:57:48;;;;;;;2.35;1.05;;;15.50;94.80;;;;;;5077946;28;20086;-80
2022/02/13 13:00:22;;;;;;;4.10;1.17;;;15.60;95.00;;;;;;5061929;28;20763;-81
2022/02/13 13:02:56;;;;;;;3.35;1.13;;;15.70;94.30;;;;;;5080414;28;20044;-81
2022/02/13 13:05:30;;;;;;;2.15;0.98;;;15.70;94.10;;;;;;5079844;28;20517;-81
2022/02/13 13:08:13;;;;;;;2.95;1.20;;;15.90;94.10;;;;;;5078493;28;20035;-81
2022/02/13 13:10:53;;;;;;;2.85;1.48;;;16.10;93.50;;;;;;5060990;28;20162;-80
2022/02/13 13:13:32;;;;;;;4.07;1.70;;;16.30;93.50;;;;;;5079705;28;20174;-80
2022/02/13 13:16:08;;;;;;;3.08;0.90;;;16.50;93.50;;;;;;5080724;28;20047;-81
2022/02/13 13:18:42;;;;;;;4.75;1.27;;;16.40;92.50;;;;;;5057511;28;20055;-82
2022/02/13 13:21:21;;;;;;;2.30;1.27;;;16.40;92.90;;;;;;5076998;28;20040;-81
2022/02/13 13:24:11;;;;;;;5.13;1.67;;;16.50;93.10;;;;;;5065997;28;20055;-81
2022/02/13 13:26:41;;;;;;;2.70;1.10;;;16.50;92.70;;;;;;5062841;28;20122;-82
2022/02/13 13:29:21;;;;;;;2.67;1.20;;;16.60;92.10;;;;;;5062948;28;20479;-82
2022/02/13 13:32:00;;;;;;;3.78;1.55;;;16.50;92.90;;;;;;5078574;28;20044;-82
2022/02/13 13:34:31;;;;;;;2.85;1.13;;;16.60;92.20;;;;;;5081077;28;20075;-82
2022/02/13 13:37:18;;;;;;;3.53;1.50;;;16.60;93.10;;;;;;5062751;28;20048;-82
2022/02/13 13:40:07;;;;;;;3.05;1.40;;;16.50;93.00;;;;;;5079877;28;20481;-82
2022/02/13 13:42:38;;;;;;;1.73;1.08;;;16.30;94.10;;;;;;5081233;28;20059;-83
2022/02/13 13:45:08;;;;;;;4.88;1.50;;;16.10;94.00;;;;;;5061743;28;20040;-82
2022/02/13 13:47:42;;;;;;;2.75;1.80;;;16.00;94.50;;;;;;5079923;28;20055;-82
2022/02/13 13:50:13;;;;;;;3.15;1.90;;;16.00;94.70;;;;;;5079169;28;20482;-82
2022/02/13 13:52:42;;;;;;;2.20;1.30;;;16.00;94.50;;;;;;5079371;28;20060;-82
2022/02/13 13:55:11;;;;;;;2.75;1.50;;;16.00;94.90;;;;;;5076926;28;20047;-83
2022/02/13 13:57:41;;;;;;;7.18;1.70;;;16.00;95.10;;;;;;5076947;28;20040;-82
2022/02/13 14:00:11;;;;;;;4.50;1.50;;;16.00;95.00;;;;;;5078051;28;20545;-82
2022/02/13 14:02:49;;;;;;;3.75;2.05;;;16.00;95.40;;;;;;5082440;28;20501;-82
2022/02/13 14:05:17;;;;;;;6.10;3.53;;;16.10;95.10;;;;;;5078422;28;20072;-82
2022/02/13 14:07:46;;;;;;;3.03;2.25;;;16.10;95.60;;;;;;5069261;28;20501;-82
2022/02/13 14:10:14;;;;;;;3.47;1.90;;;16.00;95.20;;;;;;5079381;28;20455;-82
2022/02/13 14:12:43;;;;;;;4.38;2.13;;;16.10;95.60;;;;;;5061173;28;20502;-81
2022/02/13 14:15:11;;;;;;;3.25;1.70;;;16.10;95.50;;;;;;5076684;28;20039;-81
2022/02/13 14:17:39;;;;;;;3.92;1.73;;;16.00;95.40;;;;;;5075732;28;20044;-82